Terminal Aerodrome Forecast
Issued by NWS Greer, SC

Home | Current Version | Previous Version | Text Only | Print | Product List | Glossary On
Versions: 1 2 3 4 5 6 7 8 9 10 11 12 13 14 15 16 17 18 19 20 21 22 23 24 25 26 27 28 29 30 31 32 33 34 35 36 37 38 39
000
FTUS42 KGSP 270149 AAA
TAFAVL
TAF AMD
KAVL 270149Z 2702/2724 19008KT P6SM -SHRA OVC100
     FM270600 20004KT P6SM VCSH OVC050
     FM271000 19004KT 4SM BR BKN015
     FM271400 00000KT P6SM VCSH BKN025
     FM271700 18005KT P6SM -SHRA VCTS BKN028CB
     FM272000 20004KT P6SM -SHRA BKN035 PROB30 2720/2724 4SM TSRA
      BKN015CB=

USA.gov is the U.S. government's official web portal to all federal, state and local government web resources and services.